Time;durP1;ratioP1;P1;durP2;ratioP2;P2;SDS_P1;SDS_P2;PMS_P1;PMS_P2;Temp;Humidity;BMP_temperature;BMP_pressure;BME280_temperature;BME280_humidity;BME280_pressure;Samples;Min_cycle;Max_cycle;Signal;HPM_P1;HPM_P2
2022/01/22 00:00:33;;;;;;;1.30;0.60;;;-0.80;1.40;;;-0.46;100.00;96597.39;647914;212;31541;-77
2022/01/22 00:03:15;;;;;;;0.40;0.30;;;-0.80;1.40;;;-0.39;100.00;96586.24;647616;216;31987;-77
2022/01/22 00:05:58;;;;;;;0.50;0.40;;;-0.80;1.40;;;-0.44;100.00;96578.14;647028;212;32053;-77
2022/01/22 00:11:20;;;;;;;0.90;0.80;;;-0.80;1.40;;;-0.48;100.00;96574.80;646253;212;31530;-77
2022/01/22 00:16:56;;;;;;;0.50;0.40;;;-0.80;1.40;;;-0.36;100.00;96577.34;647227;216;31628;-77
2022/01/22 00:19:47;;;;;;;0.70;0.57;;;-0.70;1.40;;;-0.37;100.00;96584.73;620177;226;31839;-75
2022/01/22 00:22:37;;;;;;;2.20;0.88;;;-0.70;1.40;;;-0.30;100.00;96582.21;646060;212;31507;-77
2022/01/22 00:25:26;;;;;;;0.60;0.60;;;-0.60;1.40;;;-0.27;100.00;96582.27;647254;216;31514;-77
2022/01/22 00:28:14;;;;;;;3.60;1.30;;;-0.60;1.40;;;-0.30;100.00;96588.92;646439;212;31525;-77
2022/01/22 00:30:56;;;;;;;0.40;0.30;;;-0.70;1.40;;;-0.21;100.00;96578.66;647657;216;31523;-78
2022/01/22 00:35:51;;;;;;;0.50;0.50;;;-0.60;1.40;;;-0.24;100.00;96586.80;648097;212;31603;-77
2022/01/22 00:38:33;;;;;;;1.60;0.90;;;-0.60;1.40;;;-0.24;100.00;96576.43;618996;222;31949;-77
2022/01/22 00:41:24;;;;;;;0.60;0.60;;;-0.60;1.40;;;-0.17;100.00;96573.72;646297;216;32055;-77
2022/01/22 00:44:11;;;;;;;0.65;0.65;;;-0.60;1.40;;;-0.20;100.00;96576.31;646536;212;31474;-78
2022/01/22 00:46:53;;;;;;;3.70;0.50;;;-0.50;1.40;;;-0.19;100.00;96567.64;647319;216;31463;-78
2022/01/22 00:49:36;;;;;;;2.00;0.50;;;-0.50;1.40;;;-0.21;100.00;96557.46;647632;216;31691;-77
2022/01/22 00:52:19;;;;;;;0.73;0.73;;;-0.60;1.40;;;-0.18;100.00;96555.59;643705;215;31572;-77
2022/01/22 00:55:01;;;;;;;1.00;0.62;;;-0.50;1.40;;;-0.16;100.00;96557.08;618905;222;31948;-77
2022/01/22 00:57:43;;;;;;;0.70;0.60;;;-0.50;1.40;;;-0.14;100.00;96556.02;646390;212;42163;-77
2022/01/22 01:00:27;;;;;;;0.80;0.60;;;-0.60;1.40;;;-0.18;100.00;96553.96;647400;216;31486;-77
2022/01/22 01:03:25;;;;;;;0.43;0.43;;;-0.50;1.40;;;-0.12;100.00;96553.93;646397;216;31524;-77
2022/01/22 01:06:12;;;;;;;1.08;0.98;;;-0.50;1.40;;;-0.10;100.00;96556.22;640722;212;31656;-77
2022/01/22 01:08:54;;;;;;;1.10;0.80;;;-0.50;1.40;;;-0.11;100.00;96553.80;647567;216;31492;-76
2022/01/22 01:11:40;;;;;;;1.40;0.50;;;-0.50;1.40;;;-0.05;100.00;96558.88;646533;216;31541;-77
2022/01/22 01:14:25;;;;;;;0.50;0.50;;;-0.50;1.40;;;-0.09;100.00;96561.75;647372;216;31512;-77
2022/01/22 01:35:52;;;;;;;1.30;1.20;;;-0.30;1.40;;;0.08;100.00;96530.92;647011;216;32899;-77
2022/01/22 01:38:40;;;;;;;1.90;0.40;;;-0.30;1.40;;;0.09;100.00;96532.13;647043;212;32115;-77
2022/01/22 01:41:29;;;;;;;1.10;0.70;;;-0.20;1.40;;;0.08;100.00;96548.03;648218;216;31495;-77
2022/01/22 01:44:02;;;;;;;1.35;1.00;;;-0.20;1.40;;;0.14;100.00;96538.81;647337;216;31513;-77
2022/01/22 01:46:45;;;;;;;0.90;0.50;;;-0.20;1.40;;;0.18;100.00;96537.03;646636;216;31611;-77
2022/01/22 01:49:30;;;;;;;0.60;0.60;;;-0.20;1.40;;;0.17;100.00;96542.28;646896;212;42154;-77
2022/01/22 01:52:17;;;;;;;0.60;0.50;;;-0.20;1.40;;;0.20;100.00;96538.45;646615;212;31497;-77
2022/01/22 01:55:02;;;;;;;0.50;0.50;;;-0.20;1.40;;;0.08;100.00;96537.95;647524;216;31517;-78
2022/01/22 01:57:39;;;;;;;0.70;0.60;;;-0.30;1.40;;;0.16;100.00;96541.23;618639;222;31954;-77
2022/01/22 02:00:22;;;;;;;2.80;0.70;;;-0.20;1.40;;;0.14;100.00;96531.36;646932;216;31495;-78
2022/01/22 02:03:05;;;;;;;0.50;0.50;;;-0.20;1.40;;;0.12;100.00;96528.17;647747;212;31504;-77
2022/01/22 02:05:47;;;;;;;0.40;0.40;;;-0.20;1.40;;;0.21;100.00;96540.27;646801;216;31567;-77
2022/01/22 02:08:30;;;;;;;0.40;0.30;;;-0.10;1.40;;;0.17;100.00;96527.22;647579;212;31461;-77
2022/01/22 02:11:18;;;;;;;0.70;0.40;;;-0.20;1.40;;;0.22;100.00;96524.72;648000;216;31519;-76
2022/01/22 02:14:07;;;;;;;0.70;0.40;;;-0.10;1.40;;;0.30;100.00;96523.31;646689;213;31500;-76
2022/01/22 02:25:04;;;;;;;0.40;0.40;;;0.00;1.40;;;0.35;100.00;96510.41;647803;212;31595;-76
2022/01/22 02:27:45;;;;;;;1.50;0.50;;;0.00;1.40;;;0.42;100.00;96498.84;645985;216;31497;-77
2022/01/22 02:30:31;;;;;;;0.40;0.30;;;0.10;1.40;;;0.39;100.00;96503.95;646599;216;32141;-76
2022/01/22 02:35:56;;;;;;;0.40;0.30;;;0.00;1.40;;;0.44;100.00;96487.43;646585;213;31509;-77
2022/01/22 02:38:41;;;;;;;1.20;0.50;;;0.00;1.40;;;0.40;100.00;96501.39;648920;216;31572;-77
2022/01/22 02:41:18;;;;;;;0.60;0.60;;;0.00;1.40;;;0.35;100.00;96504.81;646683;212;31533;-77
2022/01/22 02:43:57;;;;;;;0.40;0.40;;;0.00;1.40;;;0.39;100.00;96493.02;619723;222;31990;-77
2022/01/22 02:46:42;;;;;;;0.60;0.60;;;0.00;1.40;;;0.33;100.00;96502.23;646849;216;31684;-76
2022/01/22 02:49:23;;;;;;;0.40;0.40;;;0.00;1.40;;;0.34;100.00;96502.63;647213;212;32045;-77
2022/01/22 02:52:07;;;;;;;0.60;0.30;;;0.00;1.40;;;0.37;100.00;96499.27;646654;212;32581;-76
2022/01/22 02:54:47;;;;;;;1.10;0.50;;;0.00;1.40;;;0.34;100.00;96503.39;646978;216;31514;-77
2022/01/22 02:57:31;;;;;;;0.90;0.60;;;-0.10;1.40;;;0.33;100.00;96500.99;621035;222;31869;-77
2022/01/22 03:00:12;;;;;;;4.00;0.60;;;0.00;1.40;;;0.38;100.00;96510.71;647301;212;31560;-77
2022/01/22 03:02:54;;;;;;;1.10;0.60;;;0.00;1.40;;;0.35;100.00;96522.45;646790;216;31579;-77
2022/01/22 03:05:36;;;;;;;1.00;0.70;;;0.00;1.40;;;0.42;100.00;96508.86;645175;212;31705;-77
2022/01/22 03:08:19;;;;;;;0.40;0.30;;;0.00;1.40;;;0.39;100.00;96507.06;646821;216;31523;-77
2022/01/22 03:11:04;;;;;;;0.40;0.30;;;0.00;1.40;;;0.38;100.00;96507.19;648007;216;31578;-77
2022/01/22 03:14:23;;;;;;;0.60;0.60;;;0.00;1.40;;;0.38;100.00;96510.36;646541;216;31548;-77
2022/01/22 03:16:50;;;;;;;0.70;0.70;;;0.00;1.40;;;0.38;100.00;96507.77;646728;216;31477;-75
2022/01/22 03:19:33;;;;;;;2.00;0.40;;;0.00;1.40;;;0.40;100.00;96515.14;647099;212;42282;-76
2022/01/22 03:22:13;;;;;;;0.50;0.50;;;0.00;1.40;;;0.42;100.00;96507.55;646767;216;31524;-77
2022/01/22 03:27:30;;;;;;;0.90;0.68;;;0.00;1.40;;;0.36;100.00;96509.64;647725;216;31588;-77
2022/01/22 03:30:10;;;;;;;0.50;0.40;;;0.00;1.40;;;0.33;100.00;96503.08;618576;226;32289;-77
2022/01/22 03:35:55;;;;;;;0.50;0.50;;;-0.10;1.40;;;0.29;100.00;96501.50;647703;216;31637;-77
2022/01/22 03:38:33;;;;;;;0.80;0.50;;;0.00;1.40;;;0.26;100.00;96505.52;647257;212;31656;-75
2022/01/22 03:41:15;;;;;;;0.40;0.30;;;0.00;1.40;;;0.33;100.00;96514.08;619695;226;32276;-75
2022/01/22 03:43:56;;;;;;;1.10;0.60;;;0.00;1.40;;;0.29;100.00;96517.44;646660;216;31488;-77
2022/01/22 03:46:41;;;;;;;0.60;0.60;;;-0.10;1.40;;;0.25;100.00;96515.13;646252;212;31536;-76
2022/01/22 03:49:21;;;;;;;0.50;0.40;;;-0.10;1.40;;;0.21;100.00;96513.44;646315;216;31505;-77
2022/01/22 03:52:03;;;;;;;0.40;0.40;;;-0.20;1.40;;;0.11;100.00;96502.56;650870;216;31626;-76
2022/01/22 03:54:44;;;;;;;0.70;0.70;;;-0.20;1.40;;;0.04;100.00;96506.95;646346;216;31840;-76
2022/01/22 03:57:32;;;;;;;0.60;0.60;;;-0.30;1.40;;;-0.01;100.00;96512.30;646874;212;31513;-74
2022/01/22 04:00:16;;;;;;;0.50;0.50;;;-0.40;1.40;;;-0.04;100.00;96512.95;620786;226;32460;-77
2022/01/22 04:05:34;;;;;;;0.50;0.50;;;-0.50;1.40;;;-0.13;100.00;96510.61;646212;212;31817;-77
2022/01/22 04:08:18;;;;;;;0.80;0.50;;;-0.60;1.40;;;-0.29;100.00;96511.39;620015;226;31898;-76
2022/01/22 04:11:09;;;;;;;0.60;0.40;;;-0.60;1.40;;;-0.28;100.00;96509.57;621266;226;31966;-77
2022/01/22 04:13:57;;;;;;;0.80;0.60;;;-0.60;1.40;;;-0.30;100.00;96509.64;646418;216;31825;-77
2022/01/22 04:16:47;;;;;;;0.40;0.40;;;-0.60;1.40;;;-0.28;100.00;96500.11;644028;216;43049;-76
2022/01/22 04:24:57;;;;;;;0.40;0.40;;;-0.50;1.40;;;-0.14;100.00;96497.22;652869;212;32110;-77
2022/01/22 04:27:39;;;;;;;0.40;0.40;;;-0.50;1.40;;;-0.16;100.00;96491.00;647994;216;31594;-77
2022/01/22 04:30:21;;;;;;;0.50;0.40;;;-0.50;1.40;;;-0.21;100.00;96489.55;650525;212;31567;-77
2022/01/22 04:35:57;;;;;;;7.10;0.95;;;-0.50;1.40;;;-0.16;100.00;96507.11;647116;216;31573;-76
2022/01/22 04:38:38;;;;;;;0.40;0.40;;;-0.50;1.40;;;-0.13;100.00;96499.70;654352;216;42129;-76
2022/01/22 04:41:21;;;;;;;1.50;1.00;;;-0.50;1.40;;;-0.14;100.00;96493.35;646315;216;31498;-77
2022/01/22 04:44:04;;;;;;;1.50;0.90;;;-0.40;1.40;;;-0.08;100.00;96499.13;647515;216;31494;-76
2022/01/22 04:47:01;;;;;;;0.57;0.57;;;-0.40;1.40;;;-0.06;100.00;96504.63;648066;216;31527;-78
2022/01/22 04:52:37;;;;;;;0.40;0.30;;;-0.40;1.40;;;-0.04;100.00;96498.79;643720;212;31467;-76
2022/01/22 04:55:09;;;;;;;1.10;0.85;;;-0.40;1.40;;;-0.02;100.00;96508.98;648045;216;31539;-76
2022/01/22 04:57:51;;;;;;;0.90;0.60;;;-0.40;1.40;;;-0.04;100.00;96508.34;656475;212;31821;-77
2022/01/22 05:00:33;;;;;;;1.23;0.98;;;-0.40;1.40;;;0.00;100.00;96515.33;624966;222;31981;-77
2022/01/22 05:03:16;;;;;;;1.00;0.70;;;-0.40;1.40;;;-0.06;100.00;96506.45;651692;216;31513;-77
2022/01/22 05:05:57;;;;;;;0.43;0.43;;;-0.30;1.40;;;0.01;100.00;96510.23;652480;212;31513;-76
2022/01/22 05:08:42;;;;;;;0.40;0.30;;;-0.30;1.40;;;0.01;100.00;96506.52;648628;213;31683;-77
2022/01/22 05:11:24;;;;;;;0.70;0.40;;;-0.30;1.40;;;-0.01;100.00;96506.51;623953;226;31831;-77
2022/01/22 05:14:07;;;;;;;0.80;0.50;;;-0.30;1.40;;;0.00;100.00;96494.54;650023;212;31499;-77
2022/01/22 05:16:49;;;;;;;0.40;0.40;;;-0.30;1.40;;;0.04;100.00;96502.41;648294;216;31515;-76
2022/01/22 05:19:38;;;;;;;0.68;0.68;;;-0.30;1.40;;;0.03;100.00;96503.48;643806;212;31455;-77
2022/01/22 05:22:37;;;;;;;1.60;1.30;;;-0.30;1.40;;;-0.02;100.00;96519.81;652065;216;31542;-77
2022/01/22 05:25:09;;;;;;;0.70;0.70;;;-0.30;1.40;;;0.03;100.00;96496.50;651130;216;31513;-76
2022/01/22 05:27:59;;;;;;;0.80;0.70;;;-0.30;1.40;;;0.04;100.00;96493.62;646617;216;31548;-77
2022/01/22 05:38:39;;;;;;;0.80;0.80;;;-0.40;1.40;;;-0.02;100.00;96510.73;648619;216;31686;-77
2022/01/22 05:41:21;;;;;;;0.40;0.30;;;-0.40;1.40;;;0.01;100.00;96502.34;651563;216;31560;-76
2022/01/22 05:44:03;;;;;;;1.00;0.80;;;-0.40;1.40;;;-0.04;100.00;96499.97;653016;216;31494;-77
2022/01/22 05:46:44;;;;;;;0.80;0.80;;;-0.40;1.40;;;-0.05;100.00;96494.70;649679;216;31654;-77
2022/01/22 05:49:28;;;;;;;1.20;0.90;;;-0.40;1.40;;;-0.07;100.00;96489.98;652816;216;31528;-77
2022/01/22 05:52:13;;;;;;;0.90;0.65;;;-0.40;1.40;;;0.03;100.00;96485.41;635993;221;31679;-77
2022/01/22 05:55:12;;;;;;;0.50;0.50;;;-0.40;1.40;;;-0.03;100.00;96483.43;648692;212;31548;-77
2022/01/22 06:00:27;;;;;;;1.00;0.77;;;-0.40;1.40;;;-0.12;100.00;96491.84;651332;216;35310;-77
2022/01/22 06:03:09;;;;;;;0.62;0.62;;;-0.40;1.40;;;-0.10;100.00;96486.26;648692;212;31514;-76
2022/01/22 06:05:51;;;;;;;0.70;0.50;;;-0.40;1.40;;;-0.06;100.00;96503.72;644922;216;31701;-76
2022/01/22 06:08:39;;;;;;;0.70;0.50;;;-0.40;1.40;;;-0.04;100.00;96485.03;643438;214;31582;-77
2022/01/22 06:11:23;;;;;;;0.75;0.55;;;-0.40;1.40;;;-0.02;100.00;96483.68;653015;216;31865;-77
2022/01/22 06:14:03;;;;;;;0.82;0.80;;;-0.40;1.40;;;-0.03;100.00;96485.55;643929;216;31861;-77
2022/01/22 06:16:44;;;;;;;0.90;0.80;;;-0.40;1.40;;;-0.02;100.00;96493.27;618926;222;31969;-77
2022/01/22 06:19:29;;;;;;;2.20;0.80;;;-0.40;1.40;;;-0.03;100.00;96500.73;621180;226;31803;-77
2022/01/22 06:22:11;;;;;;;2.30;0.62;;;-0.40;1.40;;;-0.01;100.00;96509.09;625266;226;31929;-77
2022/01/22 06:24:52;;;;;;;1.00;0.70;;;-0.40;1.40;;;0.00;100.00;96505.96;648010;212;31550;-77
2022/01/22 06:27:37;;;;;;;1.20;0.80;;;-0.40;1.40;;;0.07;100.00;96507.03;623585;222;32002;-77
2022/01/22 06:30:20;;;;;;;0.50;0.50;;;-0.30;1.40;;;0.02;100.00;96529.27;644131;215;32028;-77
2022/01/22 06:33:01;;;;;;;0.75;0.43;;;-0.30;1.40;;;0.03;100.00;96524.27;648409;212;32152;-77
2022/01/22 06:35:54;;;;;;;0.50;0.50;;;-0.30;1.40;;;0.06;100.00;96534.09;644476;216;32152;-77
2022/01/22 06:38:36;;;;;;;0.60;0.60;;;-0.30;1.40;;;0.01;100.00;96527.47;647002;216;32165;-77
2022/01/22 06:46:24;;;;;;;0.60;0.60;;;-0.30;1.40;;;-0.01;100.00;96528.38;647555;212;31875;-77
2022/01/22 06:49:06;;;;;;;1.12;0.62;;;-0.40;1.40;;;0.02;100.00;96526.00;633369;221;31588;-77
2022/01/22 06:51:51;;;;;;;1.50;1.00;;;-0.40;1.40;;;0.02;100.00;96530.00;651930;216;31545;-77
2022/01/22 06:54:32;;;;;;;1.55;1.45;;;-0.30;1.40;;;0.04;100.00;96519.47;645714;216;31509;-77
2022/01/22 06:57:14;;;;;;;1.02;0.43;;;-0.30;1.40;;;0.08;100.00;96512.05;647613;212;31620;-77
2022/01/22 06:59:58;;;;;;;0.60;0.60;;;-0.30;1.40;;;0.11;100.00;96531.77;626444;226;31834;-77
2022/01/22 07:02:42;;;;;;;0.95;0.90;;;-0.20;1.40;;;0.07;100.00;96522.58;649730;212;31526;-77
2022/01/22 07:05:23;;;;;;;0.60;0.43;;;-0.20;1.40;;;0.09;100.00;96527.59;648330;212;31599;-77
2022/01/22 07:08:05;;;;;;;0.70;0.70;;;-0.20;1.40;;;0.15;100.00;96529.98;648025;212;42214;-77
2022/01/22 07:10:47;;;;;;;2.80;2.03;;;-0.20;1.40;;;0.11;100.00;96519.83;644531;216;31612;-77
2022/01/22 07:13:29;;;;;;;0.80;0.80;;;-0.20;1.40;;;0.13;100.00;96522.95;653070;212;31491;-77
2022/01/22 07:16:13;;;;;;;0.70;0.70;;;-0.20;1.40;;;0.11;100.00;96526.91;620372;226;32607;-76
2022/01/22 07:19:00;;;;;;;1.20;1.10;;;-0.20;1.40;;;0.10;100.00;96529.85;653548;212;31491;-77
2022/01/22 07:21:41;;;;;;;5.60;1.00;;;-0.20;1.40;;;0.10;100.00;96539.32;651365;216;31827;-77
2022/01/22 07:24:23;;;;;;;0.70;0.50;;;-0.30;1.40;;;0.09;100.00;96538.11;647428;216;31508;-77
2022/01/22 07:27:05;;;;;;;1.30;1.20;;;-0.30;1.40;;;0.07;100.00;96539.24;653163;216;31497;-77
2022/01/22 07:29:49;;;;;;;0.40;0.40;;;-0.30;1.40;;;0.11;100.00;96541.48;650814;216;31516;-77
2022/01/22 07:32:35;;;;;;;1.50;1.00;;;-0.30;1.40;;;0.11;100.00;96544.30;650621;212;31496;-77
2022/01/22 07:35:52;;;;;;;0.70;0.50;;;-0.30;1.40;;;0.06;100.00;96538.16;646051;212;31595;-77
2022/01/22 07:38:38;;;;;;;1.80;1.10;;;-0.30;1.40;;;0.07;100.00;96547.81;651365;212;32178;-77
2022/01/22 07:41:17;;;;;;;1.30;1.10;;;-0.30;1.40;;;0.09;100.00;96545.76;645155;212;31695;-77
2022/01/22 07:43:59;;;;;;;2.00;1.20;;;-0.30;1.40;;;0.05;100.00;96557.61;646756;216;31584;-77
2022/01/22 07:46:40;;;;;;;0.50;0.43;;;-0.30;1.40;;;0.06;100.00;96557.32;650780;212;31691;-77
2022/01/22 07:49:22;;;;;;;0.75;0.75;;;-0.30;1.40;;;0.08;100.00;96563.42;626026;226;31862;-75
2022/01/22 07:52:04;;;;;;;0.90;0.60;;;-0.30;1.40;;;0.06;100.00;96572.73;649198;212;42165;-77
2022/01/22 07:54:49;;;;;;;1.30;0.80;;;-0.30;1.40;;;0.05;100.00;96575.66;646752;212;31529;-77
2022/01/22 07:57:33;;;;;;;1.20;0.90;;;-0.30;1.40;;;0.07;100.00;96578.23;645596;216;31615;-77
2022/01/22 08:00:20;;;;;;;1.50;1.40;;;-0.30;1.40;;;0.06;100.00;96577.05;645177;216;42200;-76
2022/01/22 08:03:02;;;;;;;1.15;0.80;;;-0.30;1.40;;;0.04;100.00;96569.04;624898;222;31934;-77
2022/01/22 08:05:50;;;;;;;1.10;1.00;;;-0.30;1.40;;;0.10;100.00;96570.70;648620;212;32123;-74
2022/01/22 08:08:34;;;;;;;1.30;1.20;;;-0.30;1.40;;;0.04;100.00;96571.50;647974;212;31596;-77
2022/01/22 08:11:15;;;;;;;0.90;0.90;;;-0.30;1.40;;;0.06;100.00;96566.72;647632;212;31591;-77
2022/01/22 08:13:57;;;;;;;1.40;0.70;;;-0.30;1.40;;;0.06;100.00;96564.87;619312;226;32470;-77
2022/01/22 08:19:14;;;;;;;0.95;0.80;;;-0.30;1.40;;;0.10;100.00;96568.30;632637;220;31858;-76
2022/01/22 08:21:55;;;;;;;0.70;0.70;;;-0.20;1.40;;;0.15;100.00;96563.47;649354;216;31484;-77
2022/01/22 08:24:37;;;;;;;0.85;0.70;;;-0.20;1.40;;;0.15;100.00;96556.18;647892;212;31493;-76
2022/01/22 08:27:34;;;;;;;1.40;1.10;;;-0.20;1.40;;;0.19;100.00;96560.41;644407;212;31652;-76
2022/01/22 08:30:08;;;;;;;0.80;0.70;;;-0.10;1.40;;;0.22;100.00;96571.20;646975;216;32191;-77
2022/01/22 08:35:53;;;;;;;2.60;1.00;;;-0.10;1.40;;;0.25;100.00;96568.14;646769;212;31629;-77
2022/01/22 08:38:38;;;;;;;1.00;1.00;;;-0.10;1.40;;;0.24;100.00;96588.38;618900;222;31916;-77
2022/01/22 08:41:19;;;;;;;0.93;0.77;;;-0.10;1.40;;;0.29;100.00;96586.78;645224;212;31510;-77
2022/01/22 08:44:01;;;;;;;1.40;0.90;;;0.00;1.40;;;0.26;100.00;96580.71;644257;216;31486;-77
2022/01/22 08:46:43;;;;;;;0.70;0.60;;;0.00;1.40;;;0.35;100.00;96583.16;650185;216;31501;-77
2022/01/22 08:49:25;;;;;;;1.37;1.27;;;0.00;1.40;;;0.35;100.00;96581.75;645677;216;31462;-77
2022/01/22 08:52:12;;;;;;;0.98;0.88;;;0.00;1.40;;;0.33;100.00;96578.75;647066;212;31486;-77
2022/01/22 08:54:49;;;;;;;1.70;1.10;;;0.00;1.40;;;0.37;100.00;96585.83;647880;212;32061;-77
2022/01/22 08:57:33;;;;;;;1.65;1.40;;;0.00;1.40;;;0.33;100.00;96596.30;644634;212;31544;-76
2022/01/22 09:00:16;;;;;;;0.95;0.73;;;0.00;1.40;;;0.37;100.00;96594.79;619712;226;31852;-78
2022/01/22 09:02:58;;;;;;;0.60;0.60;;;0.00;1.40;;;0.36;100.00;96608.63;648036;213;31519;-78
2022/01/22 09:05:41;;;;;;;1.70;1.00;;;0.00;1.40;;;0.41;100.00;96608.30;643933;216;31700;-78
2022/01/22 09:08:23;;;;;;;1.70;1.52;;;0.00;1.40;;;0.34;100.00;96597.95;641704;217;31482;-77
2022/01/22 09:11:06;;;;;;;1.02;0.65;;;0.00;1.40;;;0.43;100.00;96607.75;642371;215;31488;-75
2022/01/22 09:13:53;;;;;;;2.13;0.77;;;0.00;1.40;;;0.47;100.00;96605.00;646628;216;37642;-78
2022/01/22 09:16:34;;;;;;;1.70;1.60;;;0.00;1.40;;;0.46;100.00;96595.22;646254;216;31549;-77
2022/01/22 09:19:16;;;;;;;0.60;0.57;;;0.10;1.40;;;0.48;100.00;96599.72;647785;216;31609;-77
2022/01/22 09:21:58;;;;;;;0.80;0.80;;;0.00;1.40;;;0.36;100.00;96612.59;647149;212;31524;-78
2022/01/22 09:24:40;;;;;;;0.90;0.70;;;0.00;1.40;;;0.40;100.00;96615.16;647852;216;31518;-78
2022/01/22 09:27:22;;;;;;;0.70;0.62;;;0.00;1.40;;;0.39;100.00;96615.33;646812;216;31801;-77
2022/01/22 09:30:05;;;;;;;3.22;0.93;;;0.00;1.40;;;0.42;100.00;96624.66;645653;216;31985;-77
2022/01/22 09:32:52;;;;;;;1.10;1.00;;;0.00;1.40;;;0.49;100.00;96631.69;619166;226;32079;-75
2022/01/22 09:35:57;;;;;;;0.70;0.70;;;0.00;1.40;;;0.45;100.00;96626.84;646648;216;31642;-77
2022/01/22 09:38:39;;;;;;;0.90;0.70;;;0.00;1.40;;;0.44;100.00;96641.16;647045;212;31970;-77
2022/01/22 09:41:21;;;;;;;1.30;0.90;;;0.00;1.40;;;0.39;100.00;96647.77;616789;226;31859;-76
2022/01/22 09:44:02;;;;;;;0.70;0.60;;;0.00;1.40;;;0.42;100.00;96643.34;646127;212;31499;-77
2022/01/22 09:46:44;;;;;;;1.10;0.87;;;0.00;1.40;;;0.36;100.00;96645.43;647144;212;31872;-77
2022/01/22 09:49:27;;;;;;;0.70;0.60;;;0.00;1.40;;;0.43;100.00;96646.34;647957;213;31506;-77
2022/01/22 09:52:08;;;;;;;0.70;0.70;;;0.10;1.40;;;0.50;100.00;96651.30;647286;216;31579;-77
2022/01/22 09:54:50;;;;;;;0.70;0.70;;;0.10;1.40;;;0.51;100.00;96662.37;647871;216;31856;-77
2022/01/22 09:57:36;;;;;;;0.70;0.70;;;0.10;1.40;;;0.50;100.00;96658.66;646467;216;31503;-76
2022/01/22 10:00:20;;;;;;;0.88;0.88;;;0.10;1.40;;;0.51;100.00;96673.13;619745;222;31844;-77
2022/01/22 10:03:02;;;;;;;0.73;0.73;;;0.10;1.40;;;0.45;100.00;96667.17;619200;226;31845;-77
2022/01/22 10:05:46;;;;;;;0.50;0.50;;;0.10;1.40;;;0.58;100.00;96673.98;643672;212;31643;-77
2022/01/22 10:08:34;;;;;;;1.55;1.45;;;0.20;1.40;;;0.57;100.00;96677.25;647180;212;31723;-77
2022/01/22 10:11:21;;;;;;;0.50;0.50;;;0.10;1.40;;;0.58;100.00;96677.89;646949;212;31536;-78
2022/01/22 10:14:03;;;;;;;1.00;0.70;;;0.20;1.40;;;0.53;100.00;96676.32;647350;216;42212;-77
2022/01/22 10:16:45;;;;;;;1.40;1.30;;;0.20;1.40;;;0.52;100.00;96680.71;646565;216;31677;-77
2022/01/22 10:19:32;;;;;;;0.80;0.80;;;0.10;1.40;;;0.50;100.00;96679.76;647195;216;32187;-77
2022/01/22 10:22:21;;;;;;;1.33;1.23;;;0.10;1.40;;;0.47;100.00;96672.95;647184;212;31497;-77
2022/01/22 10:25:02;;;;;;;3.07;1.00;;;0.10;1.40;;;0.50;100.00;96665.23;647189;216;42712;-74
2022/01/22 10:27:48;;;;;;;1.50;1.37;;;0.20;1.40;;;0.53;100.00;96676.77;649069;216;31521;-77
2022/01/22 10:30:35;;;;;;;0.70;0.70;;;0.20;1.40;;;0.60;100.00;96667.98;648022;216;42146;-77
2022/01/22 10:36:16;;;;;;;1.20;0.70;;;0.40;1.40;;;0.66;100.00;96669.30;643653;215;31561;-78
2022/01/22 10:38:59;;;;;;;0.80;0.80;;;0.30;1.40;;;0.65;100.00;96658.92;622048;226;31854;-78
2022/01/22 10:41:47;;;;;;;1.30;1.20;;;0.30;1.40;;;0.66;100.00;96656.84;645564;216;31529;-76
2022/01/22 10:44:36;;;;;;;0.70;0.70;;;0.30;1.40;;;0.68;100.00;96651.06;643861;216;31592;-78
2022/01/22 10:47:25;;;;;;;2.00;0.90;;;0.30;1.40;;;0.73;100.00;96655.22;644306;216;31649;-76
2022/01/22 10:50:20;;;;;;;1.00;0.70;;;0.30;1.40;;;0.69;100.00;96657.58;647171;216;32216;-79
2022/01/22 10:53:03;;;;;;;0.62;0.60;;;0.30;1.40;;;0.77;100.00;96650.72;647031;216;42120;-77
2022/01/22 10:56:02;;;;;;;1.40;1.30;;;0.40;1.40;;;0.88;100.00;96650.41;646220;216;31585;-74
2022/01/22 10:58:48;;;;;;;0.80;0.50;;;0.40;1.40;;;0.79;100.00;96654.22;646477;212;31637;-77
2022/01/22 11:01:54;;;;;;;1.10;0.90;;;0.40;1.40;;;0.74;100.00;96658.55;646987;212;31506;-78
2022/01/22 11:04:43;;;;;;;0.88;0.80;;;0.40;1.40;;;0.90;100.00;96665.13;619156;222;31944;-78
2022/01/22 11:07:27;;;;;;;1.40;1.30;;;0.40;1.40;;;0.88;100.00;96663.73;637862;212;31930;-77
2022/01/22 11:10:11;;;;;;;3.85;2.00;;;0.50;1.40;;;0.95;100.00;96656.31;646688;216;31605;-75
2022/01/22 11:12:55;;;;;;;1.80;1.50;;;0.50;1.40;;;0.92;100.00;96666.05;648055;212;31549;-78
2022/01/22 11:15:37;;;;;;;0.70;0.70;;;0.40;1.40;;;0.86;100.00;96669.45;647764;216;31566;-78
2022/01/22 11:20:57;;;;;;;0.67;0.67;;;0.40;1.40;;;0.90;100.00;96667.75;621257;222;32275;-78
2022/01/22 11:23:39;;;;;;;0.62;0.62;;;0.50;1.40;;;1.01;100.00;96663.55;648112;216;32273;-78
2022/01/22 11:26:24;;;;;;;0.70;0.70;;;0.50;1.40;;;0.89;100.00;96667.55;646204;216;42399;-78
2022/01/22 11:29:05;;;;;;;1.05;0.73;;;0.50;1.40;;;0.89;100.00;96661.36;646798;216;42106;-77
2022/01/22 11:31:53;;;;;;;1.20;0.80;;;0.50;1.40;;;1.02;100.00;96666.04;646461;212;31578;-76
2022/01/22 11:36:06;;;;;;;0.80;0.73;;;0.50;1.40;;;0.90;100.00;96672.98;615825;224;31894;-77
2022/01/22 11:38:52;;;;;;;0.90;0.90;;;0.50;1.40;;;0.94;100.00;96673.56;647312;216;31510;-77
2022/01/22 11:41:33;;;;;;;0.88;0.82;;;0.50;1.40;;;0.91;100.00;96673.27;646890;212;42134;-77
2022/01/22 11:44:19;;;;;;;1.73;1.62;;;0.50;1.40;;;1.10;100.00;96680.30;619404;222;31890;-74
2022/01/22 11:47:08;;;;;;;1.73;1.37;;;0.60;1.40;;;1.05;100.00;96669.98;641971;215;31579;-77
2022/01/22 11:50:08;;;;;;;1.25;1.05;;;0.60;1.40;;;1.20;100.00;96667.62;616439;226;31898;-78
2022/01/22 11:52:48;;;;;;;0.60;0.60;;;0.70;1.40;;;1.23;100.00;96675.61;620966;226;32087;-77
2022/01/22 11:55:31;;;;;;;0.90;0.75;;;0.70;1.40;;;1.21;100.00;96675.23;646515;216;32557;-77
2022/01/22 11:58:15;;;;;;;2.75;1.37;;;0.70;1.40;;;1.30;100.00;96678.98;645964;212;31739;-78
2022/01/22 12:00:58;;;;;;;1.65;0.85;;;0.80;1.40;;;1.12;100.00;96675.73;648437;212;42261;-77
2022/01/22 12:03:40;;;;;;;0.50;0.50;;;0.70;1.40;;;1.24;100.00;96676.82;647246;216;42113;-77
2022/01/22 12:06:25;;;;;;;1.10;1.00;;;0.70;1.40;;;1.09;100.00;96670.14;638318;212;44668;-77
2022/01/22 12:09:12;;;;;;;0.70;0.70;;;0.70;1.40;;;1.09;100.00;96674.61;647701;212;42308;-77
2022/01/22 12:14:53;;;;;;;1.33;1.02;;;0.70;1.40;;;1.14;100.00;96673.76;646831;212;31499;-77
2022/01/22 12:18:01;;;;;;;0.95;0.80;;;0.70;1.40;;;1.07;100.00;96666.16;647798;212;42223;-77
2022/01/22 12:21:31;;;;;;;0.80;0.70;;;0.60;1.40;;;1.05;100.00;96672.42;646568;216;31510;-77
2022/01/22 12:25:59;;;;;;;1.33;1.17;;;0.60;1.40;;;1.02;100.00;96668.79;646726;216;31529;-77
2022/01/22 12:28:43;;;;;;;0.80;0.60;;;0.60;1.40;;;1.09;100.00;96661.79;619545;222;42518;-76
2022/01/22 12:31:27;;;;;;;0.98;0.98;;;0.60;1.40;;;1.06;100.00;96665.11;647239;216;31537;-77
2022/01/22 12:35:57;;;;;;;0.75;0.57;;;0.70;1.40;;;1.17;100.00;96660.14;646905;212;42223;-76
2022/01/22 12:38:47;;;;;;;1.65;0.90;;;0.70;1.40;;;1.08;100.00;96656.12;647202;216;32160;-77
2022/01/22 12:41:31;;;;;;;0.62;0.50;;;0.70;1.40;;;1.21;100.00;96658.03;647305;212;31497;-76
2022/01/22 12:44:11;;;;;;;0.68;0.68;;;0.70;1.40;;;1.11;100.00;96660.91;647365;216;32100;-76
2022/01/22 12:46:55;;;;;;;2.40;1.30;;;0.70;1.40;;;1.24;100.00;96664.26;646082;212;32043;-77
2022/01/22 12:49:38;;;;;;;0.90;0.90;;;0.80;1.40;;;1.21;100.00;96660.85;646484;216;42127;-76
2022/01/22 12:52:19;;;;;;;1.50;0.80;;;0.70;1.40;;;1.16;100.00;96667.56;646721;216;42331;-77
2022/01/22 12:55:04;;;;;;;1.20;1.20;;;0.70;1.40;;;1.10;100.00;96663.16;647767;216;31522;-76
2022/01/22 12:57:43;;;;;;;1.50;1.40;;;0.70;1.40;;;1.13;100.00;96668.42;620291;226;32086;-76
2022/01/22 13:00:24;;;;;;;0.93;0.90;;;0.70;1.40;;;1.13;100.00;96656.30;646904;212;31789;-77
2022/01/22 13:03:06;;;;;;;1.20;0.73;;;0.70;1.40;;;1.15;100.00;96667.18;647425;212;31656;-76
2022/01/22 13:05:50;;;;;;;0.60;0.50;;;0.70;1.40;;;1.18;100.00;96675.01;646159;212;31542;-77
2022/01/22 13:08:30;;;;;;;1.30;1.20;;;0.70;1.40;;;1.11;100.00;96663.56;646466;212;31579;-76
2022/01/22 13:11:17;;;;;;;1.30;0.93;;;0.60;1.40;;;1.09;100.00;96662.23;647742;216;31599;-76